createdAt,value
2022-12-15T00:00:47.491Z,-7.15
2022-12-15T00:03:46.720Z,-7.39
2022-12-15T00:06:33.362Z,-7.43
2022-12-15T00:09:20.805Z,-7.47
2022-12-15T00:12:07.891Z,-7.54
2022-12-15T00:14:54.155Z,-7.56
2022-12-15T00:17:40.925Z,-7.57
2022-12-15T00:20:28.002Z,-7.58
2022-12-15T00:23:14.544Z,-7.50
2022-12-15T00:26:02.534Z,-7.58
2022-12-15T00:28:49.151Z,-7.67
2022-12-15T00:31:35.653Z,-7.69
2022-12-15T00:34:22.177Z,-7.69
2022-12-15T00:37:09.564Z,-7.57
2022-12-15T00:39:37.565Z,-7.63
2022-12-15T00:42:06.908Z,-7.67
2022-12-15T00:44:35.089Z,-7.60
2022-12-15T00:47:04.504Z,-7.58
2022-12-15T00:49:51.326Z,-7.60
2022-12-15T00:52:37.923Z,-7.70
2022-12-15T00:55:24.960Z,-7.77
2022-12-15T00:58:12.786Z,-7.80
2022-12-15T01:00:59.767Z,-7.83
2022-12-15T01:03:46.497Z,-7.68
2022-12-15T01:06:37.110Z,-7.60
2022-12-15T01:09:26.317Z,-7.58
2022-12-15T01:12:13.064Z,-7.57
2022-12-15T01:15:00.001Z,-7.57
2022-12-15T01:17:46.803Z,-7.58
2022-12-15T01:20:20.615Z,-7.58
2022-12-15T01:22:55.984Z,-7.67
2022-12-15T01:25:26.195Z,-7.77
2022-12-15T01:27:54.735Z,-7.69
2022-12-15T01:30:26.137Z,-7.64
2022-12-15T01:32:54.062Z,-7.61
2022-12-15T01:35:22.613Z,-7.59
2022-12-15T01:37:50.543Z,-7.60
2022-12-15T01:40:39.840Z,-7.65
2022-12-15T01:43:32.163Z,-7.92
2022-12-15T01:46:12.894Z,-8.06
2022-12-15T01:49:10.470Z,-8.05
2022-12-15T01:51:42.625Z,-7.95
2022-12-15T01:54:22.761Z,-7.96
2022-12-15T01:56:55.663Z,-7.95
2022-12-15T01:59:38.405Z,-7.92
2022-12-15T02:02:06.826Z,-7.92
2022-12-15T02:04:35.023Z,-7.96
2022-12-15T02:07:02.970Z,-8.13
2022-12-15T02:09:31.063Z,-8.25
2022-12-15T02:12:14.312Z,-8.24
2022-12-15T02:15:25.035Z,-8.21
2022-12-15T02:18:08.068Z,-8.20
2022-12-15T02:20:45.267Z,-8.21
2022-12-15T02:24:04.809Z,-8.18
2022-12-15T02:27:11.920Z,-8.21
2022-12-15T02:31:08.317Z,-8.12
2022-12-15T02:33:44.837Z,-8.01
2022-12-15T02:36:24.056Z,-8.13
2022-12-15T02:38:51.966Z,-8.20
2022-12-15T02:41:37.088Z,-8.32
2022-12-15T02:44:20.195Z,-8.28
2022-12-15T02:47:09.934Z,-8.28
2022-12-15T02:50:05.405Z,-8.35
2022-12-15T02:52:57.954Z,-8.27
2022-12-15T02:55:48.352Z,-8.19
2022-12-15T02:59:05.728Z,-8.14
2022-12-15T03:01:59.638Z,-8.10
2022-12-15T03:04:28.307Z,-8.09
2022-12-15T03:07:01.190Z,-8.09
2022-12-15T03:09:33.339Z,-8.11
2022-12-15T03:12:01.538Z,-8.14
2022-12-15T03:14:29.396Z,-8.14
2022-12-15T03:16:57.423Z,-8.16
2022-12-15T03:19:25.891Z,-8.29
2022-12-15T03:21:53.799Z,-8.28
2022-12-15T03:24:21.666Z,-8.18
2022-12-15T03:26:50.236Z,-8.12
2022-12-15T03:29:18.310Z,-8.12
2022-12-15T03:31:46.547Z,-8.17
2022-12-15T03:34:18.117Z,-8.41
2022-12-15T03:36:46.380Z,-8.57
2022-12-15T03:39:14.433Z,-8.48
2022-12-15T03:41:42.413Z,-8.44
2022-12-15T03:44:11.225Z,-8.48
2022-12-15T03:46:39.259Z,-8.56
2022-12-15T03:49:07.159Z,-8.46
2022-12-15T03:51:35.126Z,-8.36
2022-12-15T03:54:02.999Z,-8.31
2022-12-15T03:56:30.965Z,-8.27
2022-12-15T03:58:58.934Z,-8.28
2022-12-15T04:01:33.362Z,-8.48
2022-12-15T04:04:01.886Z,-8.56
2022-12-15T04:06:30.758Z,-8.46
2022-12-15T04:08:58.979Z,-8.38
2022-12-15T04:11:26.992Z,-8.32
2022-12-15T04:13:54.850Z,-8.30
2022-12-15T04:16:22.841Z,-8.29
2022-12-15T04:19:10.853Z,-8.30
2022-12-15T04:21:38.706Z,-8.27
2022-12-15T04:24:25.371Z,-8.33
2022-12-15T04:27:12.029Z,-8.53
2022-12-15T04:29:58.838Z,-8.55
2022-12-15T04:32:45.262Z,-8.44
2022-12-15T04:35:37.763Z,-8.37
2022-12-15T04:38:24.005Z,-8.34
2022-12-15T04:41:10.754Z,-8.32
2022-12-15T04:43:58.368Z,-8.32
2022-12-15T04:46:45.116Z,-8.32
2022-12-15T04:49:31.481Z,-8.34
2022-12-15T04:52:18.267Z,-8.36
2022-12-15T04:55:04.998Z,-8.52
2022-12-15T04:57:51.651Z,-8.54
2022-12-15T05:00:38.428Z,-8.47
2022-12-15T05:03:26.749Z,-8.42
2022-12-15T05:06:13.496Z,-8.38
2022-12-15T05:09:00.421Z,-8.44
2022-12-15T05:11:46.997Z,-8.41
2022-12-15T05:14:33.600Z,-8.39
2022-12-15T05:17:20.550Z,-8.37
2022-12-15T05:20:07.399Z,-8.38
2022-12-15T05:22:53.942Z,-8.37
2022-12-15T05:25:41.012Z,-8.40
2022-12-15T05:28:27.651Z,-8.38
2022-12-15T05:31:14.589Z,-8.36
2022-12-15T05:33:42.477Z,-8.34
2022-12-15T05:36:10.386Z,-8.31
2022-12-15T05:38:38.235Z,-8.27
2022-12-15T05:41:06.068Z,-8.21
2022-12-15T05:43:34.638Z,-8.16
2022-12-15T05:46:04.546Z,-8.17
2022-12-15T05:48:32.657Z,-8.16
2022-12-15T05:51:11.560Z,-8.18
2022-12-15T05:53:41.171Z,-8.15
2022-12-15T05:56:13.161Z,-8.15
2022-12-15T05:58:45.305Z,-8.17
2022-12-15T06:01:17.208Z,-8.19
2022-12-15T06:03:45.439Z,-8.16
2022-12-15T06:06:13.874Z,-8.17
2022-12-15T06:08:42.739Z,-8.18
2022-12-15T06:11:16.330Z,-8.21
2022-12-15T06:13:45.059Z,-8.28
2022-12-15T06:16:17.437Z,-8.30
2022-12-15T06:18:50.459Z,-8.23
2022-12-15T06:21:28.369Z,-8.25
2022-12-15T06:23:57.805Z,-8.25
2022-12-15T06:26:44.371Z,-8.19
2022-12-15T06:29:13.408Z,-8.20
2022-12-15T06:31:41.729Z,-8.24
2022-12-15T06:34:15.306Z,-8.24
2022-12-15T06:36:43.990Z,-8.22
2022-12-15T06:39:15.239Z,-8.23
2022-12-15T06:41:43.805Z,-8.21
2022-12-15T06:44:15.928Z,-8.22
2022-12-15T06:46:46.136Z,-8.21
2022-12-15T06:49:14.940Z,-8.21
2022-12-15T06:51:43.986Z,-8.25
2022-12-15T06:54:11.992Z,-8.28
2022-12-15T06:56:39.956Z,-8.23
2022-12-15T06:59:11.908Z,-8.20
2022-12-15T07:01:41.826Z,-8.20
2022-12-15T07:04:11.167Z,-8.19
2022-12-15T07:06:40.159Z,-8.20
2022-12-15T07:09:15.965Z,-8.20
2022-12-15T07:11:45.263Z,-8.18
2022-12-15T07:14:13.118Z,-8.17
2022-12-15T07:16:41.172Z,-8.17
2022-12-15T07:19:14.108Z,-8.18
2022-12-15T07:21:42.637Z,-8.34
2022-12-15T07:24:13.942Z,-8.23
2022-12-15T07:26:42.570Z,-8.17
2022-12-15T07:29:11.975Z,-8.09
2022-12-15T07:31:40.345Z,-8.04
2022-12-15T07:34:08.308Z,-8.07
2022-12-15T07:36:36.331Z,-8.09
2022-12-15T07:39:51.637Z,-7.97
2022-12-15T07:42:19.665Z,-7.93
2022-12-15T07:44:49.939Z,-7.88
2022-12-15T07:47:18.167Z,-7.83
2022-12-15T07:49:46.226Z,-7.79
2022-12-15T07:52:14.274Z,-7.74
2022-12-15T07:54:43.453Z,-7.73
2022-12-15T07:57:11.430Z,-7.73
2022-12-15T07:59:39.341Z,-7.71
2022-12-15T08:02:10.315Z,-7.71
2022-12-15T08:04:40.192Z,-7.74
2022-12-15T08:07:09.178Z,-7.68
2022-12-15T08:09:37.580Z,-7.63
2022-12-15T08:12:06.041Z,-6.13
2022-12-15T08:14:35.066Z,-5.91
2022-12-15T08:17:03.192Z,-6.73
2022-12-15T08:19:34.255Z,-7.18
2022-12-15T08:22:02.322Z,-7.24
2022-12-15T08:24:30.243Z,-7.17
2022-12-15T08:26:58.929Z,-7.05
2022-12-15T08:32:14.807Z,-7.01
2022-12-15T08:34:42.705Z,-6.93
2022-12-15T08:37:11.055Z,-7.02
2022-12-15T08:39:39.229Z,-6.91
2022-12-15T08:42:07.326Z,-6.68
2022-12-15T08:44:35.427Z,-6.43
2022-12-15T08:47:03.389Z,-6.47
2022-12-15T08:49:31.655Z,-6.59
2022-12-15T08:51:59.567Z,-6.43
2022-12-15T08:54:27.475Z,-6.14
2022-12-15T08:56:55.708Z,-6.50
2022-12-15T08:59:23.696Z,-6.43
2022-12-15T09:01:51.989Z,-6.41
2022-12-15T09:04:20.118Z,-6.46
2022-12-15T09:06:50.867Z,-6.49
2022-12-15T09:09:20.173Z,-6.36
2022-12-15T09:11:49.568Z,-6.26
2022-12-15T09:14:22.744Z,-6.20
2022-12-15T09:16:55.353Z,-6.15
2022-12-15T09:19:23.381Z,-6.04
2022-12-15T09:21:51.273Z,-5.93
2022-12-15T09:24:28.835Z,-5.86
2022-12-15T09:27:00.517Z,-5.84
2022-12-15T09:29:28.637Z,-5.79
2022-12-15T09:31:56.686Z,-5.70
2022-12-15T09:34:24.538Z,-5.61
2022-12-15T09:36:52.511Z,-5.38
2022-12-15T09:39:20.487Z,-5.21
2022-12-15T09:41:57.089Z,-5.01
2022-12-15T09:44:28.043Z,-4.79
2022-12-15T09:47:18.736Z,-4.48
2022-12-15T09:49:55.501Z,-4.48
2022-12-15T09:52:35.695Z,-4.44
2022-12-15T09:55:19.978Z,-4.40
2022-12-15T09:57:54.302Z,-4.30
2022-12-15T10:00:37.181Z,-4.23
2022-12-15T10:03:30.775Z,-4.11
2022-12-15T10:06:20.158Z,-3.99
2022-12-15T10:08:58.484Z,-3.99
2022-12-15T10:11:56.945Z,-4.14
2022-12-15T10:14:34.822Z,-4.08
2022-12-15T10:17:28.221Z,-3.92
2022-12-15T10:20:27.000Z,-3.74
2022-12-15T10:23:14.637Z,-3.59
2022-12-15T10:25:59.823Z,-3.51
2022-12-15T10:28:59.806Z,-3.57
2022-12-15T10:32:00.438Z,-3.42
2022-12-15T10:34:36.473Z,-3.32
2022-12-15T10:37:04.804Z,-3.29
2022-12-15T10:39:43.068Z,-3.30
2022-12-15T10:42:23.838Z,-3.06
2022-12-15T10:44:55.455Z,-2.96
2022-12-15T10:47:32.081Z,-2.91
2022-12-15T10:50:25.241Z,-2.84
2022-12-15T10:52:53.386Z,-2.86
2022-12-15T10:55:41.816Z,-2.82
2022-12-15T10:58:21.068Z,-2.79
2022-12-15T11:01:06.859Z,-2.71
2022-12-15T11:03:39.746Z,-2.52
2022-12-15T11:06:18.712Z,-2.09
2022-12-15T11:08:47.716Z,-2.06
2022-12-15T11:11:51.677Z,-2.09
2022-12-15T11:14:38.236Z,-2.22
2022-12-15T11:17:07.173Z,-2.31
2022-12-15T11:20:02.370Z,-2.34
2022-12-15T11:22:44.140Z,-2.40
2022-12-15T11:25:38.926Z,-2.42
2022-12-15T11:28:16.736Z,-2.49
2022-12-15T11:30:54.248Z,-2.40
2022-12-15T11:33:22.629Z,-2.34
2022-12-15T11:36:28.153Z,-2.51
2022-12-15T11:39:08.726Z,-2.65
2022-12-15T11:41:52.401Z,-2.56
2022-12-15T11:44:28.819Z,-2.53
2022-12-15T11:47:46.511Z,-2.43
2022-12-15T11:50:52.863Z,-2.27
2022-12-15T11:54:09.486Z,-1.92
2022-12-15T11:57:03.990Z,-2.28
2022-12-15T12:00:05.138Z,-2.49
2022-12-15T12:03:10.600Z,-2.48
2022-12-15T12:06:19.535Z,-2.66
2022-12-15T12:09:16.706Z,-2.75
2022-12-15T12:12:02.513Z,-2.72
2022-12-15T12:15:03.099Z,-2.71
2022-12-15T12:17:43.749Z,-2.63
2022-12-15T12:20:24.715Z,-2.70
2022-12-15T12:23:05.570Z,-2.71
2022-12-15T12:25:44.737Z,-2.68
2022-12-15T12:28:24.141Z,-2.61
2022-12-15T12:30:54.690Z,-2.55
2022-12-15T12:33:49.005Z,-2.56
2022-12-15T12:36:18.170Z,-2.55
2022-12-15T12:38:56.028Z,-2.59
2022-12-15T12:41:44.565Z,-2.63
2022-12-15T12:44:32.185Z,-2.69
2022-12-15T12:47:27.045Z,-2.60
2022-12-15T12:50:02.072Z,-2.36
2022-12-15T12:52:36.941Z,-2.49
2022-12-15T12:55:14.824Z,-2.61
2022-12-15T12:57:44.888Z,-2.57
2022-12-15T13:00:32.151Z,-2.61
2022-12-15T13:03:17.239Z,-2.67
2022-12-15T13:05:50.523Z,-2.75
2022-12-15T13:08:45.261Z,-2.79
2022-12-15T13:11:47.067Z,-2.80
2022-12-15T13:14:48.234Z,-2.83
2022-12-15T13:17:29.847Z,-2.95
2022-12-15T13:20:00.273Z,-3.03
2022-12-15T13:22:36.448Z,-2.96
2022-12-15T13:25:39.771Z,-2.89
2022-12-15T13:28:43.818Z,-2.91
2022-12-15T13:31:17.984Z,-2.92
2022-12-15T13:33:55.681Z,-2.97
2022-12-15T13:36:41.672Z,-2.96
2022-12-15T13:39:12.684Z,-2.95
2022-12-15T13:41:49.884Z,-2.94
2022-12-15T13:44:35.226Z,-3.00
2022-12-15T13:47:16.679Z,-2.94
2022-12-15T13:50:29.828Z,-2.89
2022-12-15T13:56:28.387Z,-2.90
2022-12-15T13:59:05.698Z,-2.86
2022-12-15T14:01:33.989Z,-2.91
2022-12-15T14:04:15.343Z,-2.96
2022-12-15T14:07:02.815Z,-3.27
2022-12-15T14:09:42.148Z,-3.35
2022-12-15T14:12:13.835Z,-3.30
2022-12-15T14:14:49.524Z,-3.36
2022-12-15T14:17:19.689Z,-3.39
2022-12-15T14:19:50.885Z,-3.38
2022-12-15T14:22:30.090Z,-3.39
2022-12-15T14:25:08.880Z,-3.42
2022-12-15T14:27:36.621Z,-3.41
2022-12-15T14:30:26.599Z,-3.36
2022-12-15T14:33:08.000Z,-3.41
2022-12-15T14:35:43.978Z,-3.41
2022-12-15T14:38:26.166Z,-3.48
2022-12-15T14:40:57.067Z,-3.37
2022-12-15T14:43:31.495Z,-3.33
2022-12-15T14:46:14.879Z,-3.31
2022-12-15T14:49:04.618Z,-3.27
2022-12-15T14:51:44.377Z,-3.25
2022-12-15T14:54:35.493Z,-3.32
2022-12-15T14:57:15.635Z,-3.43
2022-12-15T14:59:46.062Z,-3.37
2022-12-15T15:02:28.932Z,-3.47
2022-12-15T15:05:23.314Z,-3.57
2022-12-15T15:07:56.522Z,-3.63
2022-12-15T15:10:29.981Z,-3.37
2022-12-15T15:12:58.365Z,-3.29
2022-12-15T15:15:26.755Z,-3.39
2022-12-15T15:17:58.914Z,-3.46
2022-12-15T15:20:30.222Z,-3.51
2022-12-15T15:23:07.245Z,-3.61
2022-12-15T15:25:42.472Z,-3.59
2022-12-15T15:28:19.507Z,-3.59
2022-12-15T15:31:00.439Z,-3.63
2022-12-15T15:33:28.360Z,-3.33
2022-12-15T15:36:01.031Z,-3.36
2022-12-15T15:38:35.786Z,-3.60
2022-12-15T15:41:27.039Z,-3.69
2022-12-15T15:43:57.010Z,-3.70
2022-12-15T15:46:29.839Z,-3.72
2022-12-15T15:49:00.878Z,-3.72
2022-12-15T15:51:30.888Z,-3.71
2022-12-15T15:54:10.799Z,-3.76
2022-12-15T15:56:39.206Z,-3.94
2022-12-15T15:59:20.837Z,-3.96
2022-12-15T16:01:54.853Z,-3.84
2022-12-15T16:04:24.676Z,-3.78
2022-12-15T16:06:53.716Z,-3.69
2022-12-15T16:09:24.591Z,-3.63
2022-12-15T16:11:53.168Z,-3.59
2022-12-15T16:14:21.359Z,-3.62
2022-12-15T16:16:49.279Z,-3.69
2022-12-15T16:19:17.101Z,-3.68
2022-12-15T16:21:44.942Z,-3.66
2022-12-15T16:24:18.743Z,-3.68
2022-12-15T16:26:50.978Z,-3.68
2022-12-15T16:29:20.729Z,-3.62
2022-12-15T16:31:48.689Z,-3.72
2022-12-15T16:34:16.968Z,-3.70
2022-12-15T16:36:45.219Z,-3.70
2022-12-15T16:39:26.063Z,-3.75
2022-12-15T16:41:55.559Z,-3.81
2022-12-15T16:44:25.841Z,-3.85
2022-12-15T16:46:53.741Z,-3.81
2022-12-15T16:49:21.898Z,-3.86
2022-12-15T16:51:53.570Z,-3.86
2022-12-15T16:54:28.471Z,-3.82
2022-12-15T16:56:58.204Z,-3.59
2022-12-15T16:59:35.663Z,-3.73
2022-12-15T17:02:38.312Z,-3.83
2022-12-15T17:05:06.733Z,-3.98
2022-12-15T17:07:34.531Z,-3.98
2022-12-15T17:10:03.505Z,-4.01
2022-12-15T17:12:31.753Z,-4.02
2022-12-15T17:15:02.243Z,-4.00
2022-12-15T17:17:31.124Z,-3.93
2022-12-15T17:20:28.132Z,-3.93
2022-12-15T17:22:52.314Z,-3.95
2022-12-15T17:26:01.642Z,-3.96
2022-12-15T17:28:31.155Z,-3.89
2022-12-15T17:30:59.524Z,-3.85
2022-12-15T17:33:30.952Z,-3.86
2022-12-15T17:36:03.578Z,-3.81
2022-12-15T17:38:31.353Z,-3.92
2022-12-15T17:41:00.780Z,-3.93
2022-12-15T17:43:35.447Z,-3.94
2022-12-15T17:46:04.179Z,-3.95
2022-12-15T17:48:32.361Z,-4.07
2022-12-15T17:51:00.242Z,-4.10
2022-12-15T17:53:29.005Z,-4.25
2022-12-15T17:55:57.127Z,-4.31
2022-12-15T17:58:26.908Z,-4.35
2022-12-15T18:00:57.154Z,-4.45
2022-12-15T18:03:25.150Z,-4.56
2022-12-15T18:05:53.714Z,-4.63
2022-12-15T18:08:27.721Z,-4.63
2022-12-15T18:10:57.884Z,-4.79
2022-12-15T18:13:35.682Z,-4.94
2022-12-15T18:16:04.042Z,-4.98
2022-12-15T18:18:32.241Z,-5.00
2022-12-15T18:21:07.956Z,-5.09
2022-12-15T18:23:35.998Z,-5.08
2022-12-15T18:26:04.316Z,-5.07
2022-12-15T18:28:35.408Z,-5.07
2022-12-15T18:31:23.585Z,-5.11
2022-12-15T18:33:52.967Z,-5.14
2022-12-15T18:36:22.928Z,-5.17
2022-12-15T18:38:50.814Z,-5.16
2022-12-15T18:41:20.967Z,-5.23
2022-12-15T18:43:48.897Z,-5.35
2022-12-15T18:46:18.778Z,-5.50
2022-12-15T18:48:46.741Z,-5.48
2022-12-15T18:51:22.186Z,-5.43
2022-12-15T18:53:50.099Z,-5.38
2022-12-15T18:56:21.303Z,-5.31
2022-12-15T18:58:49.182Z,-5.37
2022-12-15T19:01:16.981Z,-5.41
2022-12-15T19:03:44.767Z,-5.45
2022-12-15T19:06:34.833Z,-5.48
2022-12-15T19:09:06.216Z,-5.51
2022-12-15T19:11:34.540Z,-5.54
2022-12-15T19:14:04.668Z,-5.62
2022-12-15T19:16:52.532Z,-5.82
2022-12-15T19:19:39.447Z,-5.97
2022-12-15T19:22:29.844Z,-5.95
2022-12-15T19:24:58.981Z,-5.83
2022-12-15T19:27:27.181Z,-5.82
2022-12-15T19:29:55.088Z,-5.82
2022-12-15T19:32:23.941Z,-5.96
2022-12-15T19:34:51.727Z,-6.03
2022-12-15T19:37:29.968Z,-5.96
2022-12-15T19:39:59.957Z,-5.96
2022-12-15T19:42:33.493Z,-5.99
2022-12-15T19:45:13.725Z,-5.98
2022-12-15T19:47:41.539Z,-5.96
2022-12-15T19:50:25.561Z,-5.98
2022-12-15T19:53:03.365Z,-6.02
2022-12-15T19:55:35.550Z,-6.04
2022-12-15T19:58:27.084Z,-6.03
2022-12-15T20:01:00.179Z,-6.08
2022-12-15T20:03:30.192Z,-6.01
2022-12-15T20:06:00.798Z,-6.03
2022-12-15T20:08:35.801Z,-6.10
2022-12-15T20:11:05.073Z,-6.14
2022-12-15T20:13:33.260Z,-6.15
2022-12-15T20:16:01.588Z,-6.16
2022-12-15T20:18:29.748Z,-6.16
2022-12-15T20:20:59.224Z,-6.25
2022-12-15T20:23:29.421Z,-6.23
2022-12-15T20:25:57.902Z,-6.25
2022-12-15T20:28:29.033Z,-6.31
2022-12-15T20:30:58.438Z,-6.38
2022-12-15T20:33:26.301Z,-6.48
2022-12-15T20:35:54.322Z,-6.48
2022-12-15T20:38:33.175Z,-6.42
2022-12-15T20:41:03.663Z,-6.36
2022-12-15T20:43:32.537Z,-6.34
2022-12-15T20:46:18.421Z,-6.34
2022-12-15T20:48:47.770Z,-6.36
2022-12-15T20:51:25.128Z,-6.47
2022-12-15T20:53:55.683Z,-6.51
2022-12-15T20:56:24.269Z,-6.42
2022-12-15T20:58:55.398Z,-6.51
2022-12-15T21:01:35.389Z,-6.64
2022-12-15T21:04:26.565Z,-6.62
2022-12-15T21:06:55.992Z,-6.55
2022-12-15T21:09:24.630Z,-6.50
2022-12-15T21:11:54.898Z,-6.50
2022-12-15T21:14:24.111Z,-6.66
2022-12-15T21:16:52.215Z,-6.79
2022-12-15T21:19:21.736Z,-6.74
2022-12-15T21:21:55.645Z,-6.67
2022-12-15T21:24:26.802Z,-6.71
2022-12-15T21:26:55.243Z,-6.74
2022-12-15T21:29:27.286Z,-6.74
2022-12-15T21:31:55.121Z,-6.83
2022-12-15T21:34:22.969Z,-6.87
2022-12-15T21:36:54.913Z,-6.91
2022-12-15T21:39:29.618Z,-6.98
2022-12-15T21:42:01.628Z,-7.01
2022-12-15T21:44:29.476Z,-6.98
2022-12-15T21:46:57.871Z,-6.94
2022-12-15T21:49:26.244Z,-6.86
2022-12-15T21:51:58.204Z,-6.93
2022-12-15T21:54:31.704Z,-6.94
2022-12-15T21:57:00.879Z,-6.99
2022-12-15T21:59:32.009Z,-7.11
2022-12-15T22:02:01.321Z,-7.21
2022-12-15T22:04:33.711Z,-7.23
2022-12-15T22:07:01.694Z,-7.23
2022-12-15T22:09:29.522Z,-7.27
2022-12-15T22:11:57.590Z,-7.31
2022-12-15T22:14:33.567Z,-7.32
2022-12-15T22:17:19.252Z,-7.29
2022-12-15T22:19:47.717Z,-7.24
2022-12-15T22:22:16.612Z,-7.22
2022-12-15T22:24:44.684Z,-7.20
2022-12-15T22:27:21.804Z,-7.25
2022-12-15T22:29:50.335Z,-7.28
2022-12-15T22:32:18.220Z,-7.30
2022-12-15T22:34:46.081Z,-7.36
2022-12-15T22:37:13.899Z,-7.36
2022-12-15T22:39:41.657Z,-7.39
2022-12-15T22:42:16.610Z,-7.42
2022-12-15T22:44:45.145Z,-7.42
2022-12-15T22:47:13.244Z,-7.34
2022-12-15T22:49:41.695Z,-7.30
2022-12-15T22:52:18.322Z,-7.26
2022-12-15T22:54:48.294Z,-7.27
2022-12-15T22:57:25.835Z,-7.24
2022-12-15T23:00:07.253Z,-7.33
2022-12-15T23:02:41.683Z,-7.49
2022-12-15T23:05:13.513Z,-7.49
2022-12-15T23:07:42.562Z,-7.44
2022-12-15T23:10:34.169Z,-7.37
2022-12-15T23:13:01.875Z,-7.39
2022-12-15T23:15:50.185Z,-7.43
2022-12-15T23:18:19.687Z,-7.45
2022-12-15T23:20:47.489Z,-7.56
2022-12-15T23:23:15.374Z,-7.64
2022-12-15T23:25:45.094Z,-7.76
2022-12-15T23:28:14.146Z,-7.82
2022-12-15T23:30:42.271Z,-7.77
2022-12-15T23:33:09.977Z,-7.67
2022-12-15T23:35:40.113Z,-7.63
2022-12-15T23:38:07.850Z,-7.64
2022-12-15T23:40:36.880Z,-7.76
2022-12-15T23:43:04.587Z,-7.84
2022-12-15T23:45:32.481Z,-7.78
2022-12-15T23:48:00.277Z,-7.88
2022-12-15T23:50:27.993Z,-7.85
2022-12-15T23:52:55.708Z,-7.93
2022-12-15T23:55:23.521Z,-8.01
2022-12-15T23:57:51.703Z,-8.00
